Skip Navigation Links
NOAA logo - Click to go to the NOAA homepage
NOAA's National Weather Service
Alaska Aviation Weather Unit
  NWS logo - Click to go to the NWS homepage
Left Navbar Graphic     19 AKDT = 03 GMT

   
NOAA is celebrating 200 years of science, service, and stewardship. Visit the NOAA 200th celebration Web site to learn more.
USA.gov is the U.S. Government's official Web portal to all Federal, state and local government Web resources and services.
Facebook
NWS on Facebook

Important Change Regarding the AAWU Web Presence

 

Over the last several months, the AAWU has been working to navigate its webpages to a nationally supported server. Security, as well as other needs, have necessitated the change.  We have been given an extension for the site changeover while we diligently work at addressing feedback received. As of July 14, 2017, aawu.arh.noaa.gov will be discontinued. The new AAWU web address is weather.gov/aawu. It is now live and will run in-parallel with the old site until it is discontinued on July 14, 2017. Please continue to send any feedback or questions regarding the new webpages to nws.ar.aawu.webauthors@noaa.gov.  Thank you for your patience during this time of transition.
AAWU Home :: Display TAF Add Bookmark
TAF PAOM 282331Z 2900/2924 13013KT P6SM -RA FEW005 BKN050 OVC060
     FM290200 14010KT 6SM -RA OVC015
     FM290500 14009KT 2SM -RA BR OVC015
     FM291000 12006KT 6SM -SHRA BR OVC015=
PAOM 282110Z 14010KT 3SM -RA BR SCT004 SCT014 OVC020 09/09 A2964=

SPECI PAOM 282110Z 14010KT 3SM -RA BR SCT004 SCT014 OVC020 09/09 A2964
     RMK AO2 P0001 T00940094 CHINO NE=

PAOM 282151Z 15008KT 10SM -RA BKN014 BKN028 OVC037 09/09 A2965=

SPECI PAOM 282151Z 15008KT 10SM -RA BKN014 BKN028 OVC037 09/09 A2965 RMK
     AO2 P0002 CHINO NE=

METAR PAOM 282153Z 14008KT 10SM -RA BKN014 BKN028 OVC037 09/09 A2965=

PAOM 282222Z 13009KT 10SM -RA SCT004 BKN018 OVC050 10/10 A2965=

PAOM 282222Z 13009KT 10SM -RA SCT004 BKN018 OVC050 10/10 A2965 RMK
     AO2 P0000 T01000100 CHINO NE=

PAOM 282234Z 13011KT 10SM BKN004 BKN014 OVC049 10/10 A2966=

SPECI PAOM 282234Z 13011KT 10SM BKN004 BKN014 OVC049 10/10 A2966 RMK AO2
     RAE28 P0000 T01000100 CHINO NE=

PAOM 282244Z 12010KT 10SM -RA SCT004 BKN015 OVC048 10/10 A2966=

SPECI PAOM 282244Z 12010KT 10SM -RA SCT004 BKN015 OVC048 10/10 A2966 RMK
     AO2 RAE28B39 P0000 T01000100=

METAR PAOM 282253Z 13010KT 10SM -RA SCT004 BKN015 OVC048 10/10 A2966=

PAOM 282300Z 13013KT 10SM -RA FEW005 BKN050 OVC060 10/10 A2966=

SPECI PAOM 282300Z 13013KT 10SM -RA FEW005 BKN050 OVC060 10/10 A2966 RMK
     AO2 P0000 T01000100 CHINO NE=

PAOM 282331Z 13014KT 10SM BKN029 BKN075 11/11 A2967=

SPECI PAOM 282331Z 13014KT 10SM BKN029 BKN075 11/11 A2967 RMK AO2 RAE11
     P0000 T01060106 CHINO NE=

PAOM 282340Z 13013KT 10SM SCT029 BKN055 11/11 A2967=

PAOM 282340Z 13013KT 10SM SCT029 BKN055 11/11 A2967 RMK AO2 RAE11
     P0000 T01060106 CHINO NE=

METAR PAOM 282353Z 13012KT 10SM FEW010 SCT030 BKN055 11/11 A2967=

METAR PAOM 290053Z 12015G20KT 10SM BKN041 OVC050 11/09 A2967=

METAR PAOM 290153Z 11015KT 10SM -RA FEW023 BKN032 OVC050 10/10 A2968=

METAR PAOM 290253Z 11018KT 10SM SCT039 BKN050 OVC060 11/10 A2967=

PAOM 290337Z 12016KT 4SM -RA BR SCT006 BKN029 OVC035 11/10 A2968=

SPECI PAOM 290337Z 12016KT 4SM -RA BR SCT006 BKN029 OVC035 11/10 A2968
     RMK AO2 RAB00E09B36 P0000 T01060100=


NOAA's National Weather Service
Alaska Aviation Weather Unit
6930 Sand Lake Road
Anchorage, AK 99502-1845
Disclaimer
Credits
Glossary
Privacy Policy
About Us
Career Opportunities
Contact AAWU Internet Services Site last modified: April, 17th 2012